<?xml version="1.0" encoding="UTF-8" standalone="no" ?>
<gpx xmlns="http://www.topografix.com/GPX/1/1" xmlns:xsi="http://www.w3.org/2001/XMLSchema-instance" xsi:schemaLocation="http://www.topografix.com/GPX/1/1 http://www.topografix.com/GPX/1/1/gpx.xsd" version="1.1" creator="VisuGPX - https://www.visugpx.com">
  <metadata>
    <name>Redon_Chateaulin</name>
    <desc><![CDATA[Randonnée cyclotouriste de Redon à Châteaulin par le chemin de halage du canal de Nantes à Brest avec quelques échappées vers Rostrenen, Carhaix et Pleyben.]]></desc>
  </metadata>
  <trk>
    <name><![CDATA[ACTIVE LOG 011]]></name>
    <trkseg>
      <trkpt lat="48.23155" lon="-3.29807">
        <ele>211.14672851562</ele>
        <time>2012-04-18T08:30:05Z</time>
      </trkpt>
      <trkpt lat="48.23157" lon="-3.29813">
        <ele>220.75988769531</ele>
        <time>2012-04-18T08:30:55Z</time>
      </trkpt>
      <trkpt lat="48.23169" lon="-3.2983">
        <ele>221.72119140625</ele>
        <time>2012-04-18T08:31:09Z</time>
      </trkpt>
      <trkpt lat="48.23169" lon="-3.29859">
        <ele>223.16320800781</ele>
        <time>2012-04-18T08:31:30Z</time>
      </trkpt>
      <trkpt lat="48.23184" lon="-3.29873">
        <ele>223.64379882812</ele>
        <time>2012-04-18T08:31:43Z</time>
      </trkpt>
      <trkpt lat="48.2318" lon="-3.29883">
        <ele>223.64379882812</ele>
        <time>2012-04-18T08:31:57Z</time>
      </trkpt>
      <trkpt lat="48.23165" lon="-3.29901">
        <ele>223.16320800781</ele>
        <time>2012-04-18T08:32:10Z</time>
      </trkpt>
      <trkpt lat="48.23145" lon="-3.29919">
        <ele>222.68249511719</ele>
        <time>2012-04-18T08:32:21Z</time>
      </trkpt>
      <trkpt lat="48.23118" lon="-3.29961">
        <ele>224.60522460938</ele>
        <time>2012-04-18T08:32:35Z</time>
      </trkpt>
      <trkpt lat="48.23099" lon="-3.29989">
        <ele>227.9697265625</ele>
        <time>2012-04-18T08:32:51Z</time>
      </trkpt>
      <trkpt lat="48.23097" lon="-3.29992">
        <ele>228.45043945312</ele>
        <time>2012-04-18T08:32:53Z</time>
      </trkpt>
      <trkpt lat="48.23094" lon="-3.29995">
        <ele>229.41174316406</ele>
        <time>2012-04-18T08:32:56Z</time>
      </trkpt>
      <trkpt lat="48.23068" lon="-3.30016">
        <ele>233.73767089844</ele>
        <time>2012-04-18T08:33:17Z</time>
      </trkpt>
      <trkpt lat="48.23047" lon="-3.30045">
        <ele>237.58288574219</ele>
        <time>2012-04-18T08:33:35Z</time>
      </trkpt>
      <trkpt lat="48.23036" lon="-3.30081">
        <ele>239.98620605469</ele>
        <time>2012-04-18T08:33:51Z</time>
      </trkpt>
      <trkpt lat="48.23033" lon="-3.30094">
        <ele>239.50549316406</ele>
        <time>2012-04-18T08:33:56Z</time>
      </trkpt>
      <trkpt lat="48.23035" lon="-3.30157">
        <ele>239.98620605469</ele>
        <time>2012-04-18T08:34:17Z</time>
      </trkpt>
      <trkpt lat="48.23038" lon="-3.30169">
        <ele>239.98620605469</ele>
        <time>2012-04-18T08:34:21Z</time>
      </trkpt>
      <trkpt lat="48.23053" lon="-3.30242">
        <ele>238.54431152344</ele>
        <time>2012-04-18T08:34:44Z</time>
      </trkpt>
      <trkpt lat="48.23056" lon="-3.30267">
        <ele>239.02490234375</ele>
        <time>2012-04-18T08:34:53Z</time>
      </trkpt>
      <trkpt lat="48.23055" lon="-3.30276">
        <ele>239.50549316406</ele>
        <time>2012-04-18T08:34:57Z</time>
      </trkpt>
      <trkpt lat="48.23054" lon="-3.30278">
        <ele>239.50549316406</ele>
        <time>2012-04-18T08:35:06Z</time>
      </trkpt>
      <trkpt lat="48.23047" lon="-3.30278">
        <ele>238.54431152344</ele>
        <time>2012-04-18T08:35:10Z</time>
      </trkpt>
      <trkpt lat="48.23036" lon="-3.30262">
        <ele>236.62170410156</ele>
        <time>2012-04-18T08:35:24Z</time>
      </trkpt>
      <trkpt lat="48.23036" lon="-3.30262">
        <ele>236.14099121094</ele>
        <time>2012-04-18T08:35:29Z</time>
      </trkpt>
      <trkpt lat="48.23031" lon="-3.30257">
        <ele>236.62170410156</ele>
        <time>2012-04-18T08:35:33Z</time>
      </trkpt>
      <trkpt lat="48.23001" lon="-3.30231">
        <ele>239.50549316406</ele>
        <time>2012-04-18T08:35:46Z</time>
      </trkpt>
      <trkpt lat="48.22945" lon="-3.30222">
        <ele>239.02490234375</ele>
        <time>2012-04-18T08:36:04Z</time>
      </trkpt>
      <trkpt lat="48.22889" lon="-3.30224">
        <ele>239.50549316406</ele>
        <time>2012-04-18T08:36:20Z</time>
      </trkpt>
      <trkpt lat="48.22817" lon="-3.30182">
        <ele>238.54431152344</ele>
        <time>2012-04-18T08:36:41Z</time>
      </trkpt>
      <trkpt lat="48.22776" lon="-3.30097">
        <ele>237.58288574219</ele>
        <time>2012-04-18T08:36:59Z</time>
      </trkpt>
      <trkpt lat="48.22729" lon="-3.29938">
        <ele>234.21838378906</ele>
        <time>2012-04-18T08:37:24Z</time>
      </trkpt>
      <trkpt lat="48.2268" lon="-3.29811">
        <ele>230.373046875</ele>
        <time>2012-04-18T08:37:42Z</time>
      </trkpt>
      <trkpt lat="48.22631" lon="-3.29673">
        <ele>226.52783203125</ele>
        <time>2012-04-18T08:38:00Z</time>
      </trkpt>
      <trkpt lat="48.22593" lon="-3.29528">
        <ele>222.20178222656</ele>
        <time>2012-04-18T08:38:19Z</time>
      </trkpt>
      <trkpt lat="48.22548" lon="-3.29346">
        <ele>216.91467285156</ele>
        <time>2012-04-18T08:38:40Z</time>
      </trkpt>
      <trkpt lat="48.22495" lon="-3.292">
        <ele>213.0693359375</ele>
        <time>2012-04-18T08:38:57Z</time>
      </trkpt>
      <trkpt lat="48.22451" lon="-3.29076">
        <ele>209.70483398438</ele>
        <time>2012-04-18T08:39:13Z</time>
      </trkpt>
      <trkpt lat="48.22422" lon="-3.28938">
        <ele>209.22412109375</ele>
        <time>2012-04-18T08:39:31Z</time>
      </trkpt>
      <trkpt lat="48.22379" lon="-3.28781">
        <ele>209.22412109375</ele>
        <time>2012-04-18T08:39:54Z</time>
      </trkpt>
      <trkpt lat="48.22376" lon="-3.28774">
        <ele>209.22412109375</ele>
        <time>2012-04-18T08:39:55Z</time>
      </trkpt>
      <trkpt lat="48.22309" lon="-3.28666">
        <ele>207.30139160156</ele>
        <time>2012-04-18T08:40:14Z</time>
      </trkpt>
      <trkpt lat="48.22251" lon="-3.28582">
        <ele>203.93688964844</ele>
        <time>2012-04-18T08:40:27Z</time>
      </trkpt>
      <trkpt lat="48.22163" lon="-3.28468">
        <ele>202.49487304688</ele>
        <time>2012-04-18T08:40:45Z</time>
      </trkpt>
      <trkpt lat="48.22114" lon="-3.28432">
        <ele>204.89807128906</ele>
        <time>2012-04-18T08:40:59Z</time>
      </trkpt>
      <trkpt lat="48.22051" lon="-3.28392">
        <ele>207.30139160156</ele>
        <time>2012-04-18T08:41:19Z</time>
      </trkpt>
      <trkpt lat="48.21953" lon="-3.28324">
        <ele>205.85949707031</ele>
        <time>2012-04-18T08:41:43Z</time>
      </trkpt>
      <trkpt lat="48.21929" lon="-3.28299">
        <ele>205.37878417969</ele>
        <time>2012-04-18T08:41:50Z</time>
      </trkpt>
      <trkpt lat="48.21905" lon="-3.28303">
        <ele>205.37878417969</ele>
        <time>2012-04-18T08:41:57Z</time>
      </trkpt>
      <trkpt lat="48.21822" lon="-3.28342">
        <ele>205.37878417969</ele>
        <time>2012-04-18T08:42:17Z</time>
      </trkpt>
      <trkpt lat="48.21746" lon="-3.2836">
        <ele>206.82067871094</ele>
        <time>2012-04-18T08:42:39Z</time>
      </trkpt>
      <trkpt lat="48.21689" lon="-3.28368">
        <ele>209.70483398438</ele>
        <time>2012-04-18T08:43:01Z</time>
      </trkpt>
      <trkpt lat="48.21635" lon="-3.28396">
        <ele>213.55004882812</ele>
        <time>2012-04-18T08:43:25Z</time>
      </trkpt>
      <trkpt lat="48.21601" lon="-3.28491">
        <ele>219.31799316406</ele>
        <time>2012-04-18T08:43:54Z</time>
      </trkpt>
      <trkpt lat="48.21569" lon="-3.28572">
        <ele>223.64379882812</ele>
        <time>2012-04-18T08:44:19Z</time>
      </trkpt>
      <trkpt lat="48.21531" lon="-3.28648">
        <ele>226.04711914062</ele>
        <time>2012-04-18T08:44:43Z</time>
      </trkpt>
      <trkpt lat="48.2149" lon="-3.28731">
        <ele>225.56652832031</ele>
        <time>2012-04-18T08:45:07Z</time>
      </trkpt>
      <trkpt lat="48.21424" lon="-3.28819">
        <ele>220.75988769531</ele>
        <time>2012-04-18T08:45:29Z</time>
      </trkpt>
      <trkpt lat="48.21369" lon="-3.28925">
        <ele>215.47265625</ele>
        <time>2012-04-18T08:45:45Z</time>
      </trkpt>
      <trkpt lat="48.21322" lon="-3.29093">
        <ele>209.70483398438</ele>
        <time>2012-04-18T08:46:05Z</time>
      </trkpt>
      <trkpt lat="48.21288" lon="-3.29214">
        <ele>205.85949707031</ele>
        <time>2012-04-18T08:46:20Z</time>
      </trkpt>
      <trkpt lat="48.21271" lon="-3.29341">
        <ele>205.85949707031</ele>
        <time>2012-04-18T08:46:34Z</time>
      </trkpt>
      <trkpt lat="48.21261" lon="-3.29445">
        <ele>206.34008789062</ele>
        <time>2012-04-18T08:46:50Z</time>
      </trkpt>
      <trkpt lat="48.21229" lon="-3.29565">
        <ele>202.97546386719</ele>
        <time>2012-04-18T08:47:09Z</time>
      </trkpt>
      <trkpt lat="48.21171" lon="-3.29694">
        <ele>199.13012695312</ele>
        <time>2012-04-18T08:47:31Z</time>
      </trkpt>
      <trkpt lat="48.21091" lon="-3.29792">
        <ele>198.64953613281</ele>
        <time>2012-04-18T08:47:53Z</time>
      </trkpt>
      <trkpt lat="48.20997" lon="-3.29905">
        <ele>197.68823242188</ele>
        <time>2012-04-18T08:48:22Z</time>
      </trkpt>
      <trkpt lat="48.20922" lon="-3.29996">
        <ele>193.3623046875</ele>
        <time>2012-04-18T08:48:43Z</time>
      </trkpt>
      <trkpt lat="48.20866" lon="-3.30065">
        <ele>189.51696777344</ele>
        <time>2012-04-18T08:48:59Z</time>
      </trkpt>
      <trkpt lat="48.20811" lon="-3.30135">
        <ele>184.71057128906</ele>
        <time>2012-04-18T08:49:14Z</time>
      </trkpt>
      <trkpt lat="48.20748" lon="-3.30215">
        <ele>178.4619140625</ele>
        <time>2012-04-18T08:49:29Z</time>
      </trkpt>
      <trkpt lat="48.20671" lon="-3.30313">
        <ele>172.21325683594</ele>
        <time>2012-04-18T08:49:47Z</time>
      </trkpt>
      <trkpt lat="48.20629" lon="-3.30411">
        <ele>167.88732910156</ele>
        <time>2012-04-18T08:50:00Z</time>
      </trkpt>
      <trkpt lat="48.206" lon="-3.30466">
        <ele>165.00341796875</ele>
        <time>2012-04-18T08:50:14Z</time>
      </trkpt>
      <trkpt lat="48.20594" lon="-3.30471">
        <ele>165.00341796875</ele>
        <time>2012-04-18T08:50:19Z</time>
      </trkpt>
      <trkpt lat="48.20561" lon="-3.30498">
        <ele>162.60009765625</ele>
        <time>2012-04-18T08:50:32Z</time>
      </trkpt>
      <trkpt lat="48.20518" lon="-3.30498">
        <ele>160.67749023438</ele>
        <time>2012-04-18T08:50:42Z</time>
      </trkpt>
      <trkpt lat="48.20512" lon="-3.30497">
        <ele>160.67749023438</ele>
        <time>2012-04-18T08:50:46Z</time>
      </trkpt>
      <trkpt lat="48.2051" lon="-3.30574">
        <ele>160.67749023438</ele>
        <time>2012-04-18T08:51:02Z</time>
      </trkpt>
      <trkpt lat="48.20513" lon="-3.30643">
        <ele>161.63891601562</ele>
        <time>2012-04-18T08:51:15Z</time>
      </trkpt>
      <trkpt lat="48.20529" lon="-3.30687">
        <ele>160.67749023438</ele>
        <time>2012-04-18T08:51:24Z</time>
      </trkpt>
      <trkpt lat="48.20567" lon="-3.30765">
        <ele>163.5615234375</ele>
        <time>2012-04-18T08:51:40Z</time>
      </trkpt>
      <trkpt lat="48.20596" lon="-3.3083">
        <ele>163.08081054688</ele>
        <time>2012-04-18T08:51:54Z</time>
      </trkpt>
      <trkpt lat="48.20645" lon="-3.30925">
        <ele>162.11950683594</ele>
        <time>2012-04-18T08:52:14Z</time>
      </trkpt>
      <trkpt lat="48.20675" lon="-3.30984">
        <ele>162.60009765625</ele>
        <time>2012-04-18T08:52:27Z</time>
      </trkpt>
      <trkpt lat="48.20718" lon="-3.31065">
        <ele>163.08081054688</ele>
        <time>2012-04-18T08:52:46Z</time>
      </trkpt>
      <trkpt lat="48.20759" lon="-3.31145">
        <ele>160.19689941406</ele>
        <time>2012-04-18T08:53:04Z</time>
      </trkpt>
      <trkpt lat="48.20785" lon="-3.31199">
        <ele>161.158203125</ele>
        <time>2012-04-18T08:53:16Z</time>
      </trkpt>
      <trkpt lat="48.20826" lon="-3.31275">
        <ele>161.63891601562</ele>
        <time>2012-04-18T08:53:34Z</time>
      </trkpt>
      <trkpt lat="48.20858" lon="-3.31339">
        <ele>161.63891601562</ele>
        <time>2012-04-18T08:53:49Z</time>
      </trkpt>
      <trkpt lat="48.20898" lon="-3.31422">
        <ele>161.158203125</ele>
        <time>2012-04-18T08:54:07Z</time>
      </trkpt>
      <trkpt lat="48.20948" lon="-3.31518">
        <ele>159.23547363281</ele>
        <time>2012-04-18T08:54:29Z</time>
      </trkpt>
      <trkpt lat="48.20978" lon="-3.31576">
        <ele>159.23547363281</ele>
        <time>2012-04-18T08:54:42Z</time>
      </trkpt>
      <trkpt lat="48.21014" lon="-3.31648">
        <ele>157.79357910156</ele>
        <time>2012-04-18T08:54:58Z</time>
      </trkpt>
      <trkpt lat="48.21042" lon="-3.31703">
        <ele>159.23547363281</ele>
        <time>2012-04-18T08:55:14Z</time>
      </trkpt>
      <trkpt lat="48.21084" lon="-3.31787">
        <ele>160.67749023438</ele>
        <time>2012-04-18T08:55:34Z</time>
      </trkpt>
      <trkpt lat="48.21114" lon="-3.31876">
        <ele>160.67749023438</ele>
        <time>2012-04-18T08:55:52Z</time>
      </trkpt>
      <trkpt lat="48.21114" lon="-3.31924">
        <ele>161.158203125</ele>
        <time>2012-04-18T08:56:02Z</time>
      </trkpt>
      <trkpt lat="48.21114" lon="-3.31934">
        <ele>161.63891601562</ele>
        <time>2012-04-18T08:56:04Z</time>
      </trkpt>
      <trkpt lat="48.21108" lon="-3.3198">
        <ele>164.04211425781</ele>
        <time>2012-04-18T08:56:17Z</time>
      </trkpt>
      <trkpt lat="48.21102" lon="-3.32046">
        <ele>163.5615234375</ele>
        <time>2012-04-18T08:56:31Z</time>
      </trkpt>
      <trkpt lat="48.21093" lon="-3.32123">
        <ele>165.00341796875</ele>
        <time>2012-04-18T08:56:50Z</time>
      </trkpt>
      <trkpt lat="48.2109" lon="-3.32141">
        <ele>165.48413085938</ele>
        <time>2012-04-18T08:56:57Z</time>
      </trkpt>
      <trkpt lat="48.2108" lon="-3.32201">
        <ele>166.92602539062</ele>
        <time>2012-04-18T08:57:16Z</time>
      </trkpt>
      <trkpt lat="48.2108" lon="-3.32209">
        <ele>166.92602539062</ele>
        <time>2012-04-18T08:57:19Z</time>
      </trkpt>
      <trkpt lat="48.21079" lon="-3.32235">
        <ele>167.40673828125</ele>
        <time>2012-04-18T08:57:28Z</time>
      </trkpt>
      <trkpt lat="48.21075" lon="-3.32248">
        <ele>166.4453125</ele>
        <time>2012-04-18T08:57:42Z</time>
      </trkpt>
      <trkpt lat="48.21072" lon="-3.32281">
        <ele>165.48413085938</ele>
        <time>2012-04-18T08:58:54Z</time>
      </trkpt>
      <trkpt lat="48.21062" lon="-3.32365">
        <ele>168.36804199219</ele>
        <time>2012-04-18T08:59:09Z</time>
      </trkpt>
      <trkpt lat="48.21048" lon="-3.32476">
        <ele>170.29064941406</ele>
        <time>2012-04-18T08:59:29Z</time>
      </trkpt>
      <trkpt lat="48.21042" lon="-3.32534">
        <ele>170.29064941406</ele>
        <time>2012-04-18T08:59:40Z</time>
      </trkpt>
      <trkpt lat="48.21047" lon="-3.3259">
        <ele>167.40673828125</ele>
        <time>2012-04-18T08:59:50Z</time>
      </trkpt>
      <trkpt lat="48.21061" lon="-3.32654">
        <ele>164.52270507812</ele>
        <time>2012-04-18T09:00:02Z</time>
      </trkpt>
      <trkpt lat="48.21087" lon="-3.32762">
        <ele>163.08081054688</ele>
        <time>2012-04-18T09:00:21Z</time>
      </trkpt>
      <trkpt lat="48.21112" lon="-3.3286">
        <ele>163.08081054688</ele>
        <time>2012-04-18T09:00:39Z</time>
      </trkpt>
      <trkpt lat="48.21139" lon="-3.32945">
        <ele>163.5615234375</ele>
        <time>2012-04-18T09:00:55Z</time>
      </trkpt>
      <trkpt lat="48.21172" lon="-3.32994">
        <ele>163.5615234375</ele>
        <time>2012-04-18T09:01:07Z</time>
      </trkpt>
      <trkpt lat="48.21215" lon="-3.33054">
        <ele>165.00341796875</ele>
        <time>2012-04-18T09:01:22Z</time>
      </trkpt>
      <trkpt lat="48.21258" lon="-3.33115">
        <ele>163.5615234375</ele>
        <time>2012-04-18T09:01:37Z</time>
      </trkpt>
      <trkpt lat="48.21281" lon="-3.3315">
        <ele>163.08081054688</ele>
        <time>2012-04-18T09:01:45Z</time>
      </trkpt>
      <trkpt lat="48.21322" lon="-3.33207">
        <ele>163.5615234375</ele>
        <time>2012-04-18T09:01:58Z</time>
      </trkpt>
      <trkpt lat="48.21331" lon="-3.3322">
        <ele>163.5615234375</ele>
        <time>2012-04-18T09:02:01Z</time>
      </trkpt>
      <trkpt lat="48.21352" lon="-3.3325">
        <ele>164.52270507812</ele>
        <time>2012-04-18T09:02:08Z</time>
      </trkpt>
      <trkpt lat="48.21361" lon="-3.33262">
        <ele>164.04211425781</ele>
        <time>2012-04-18T09:02:11Z</time>
      </trkpt>
      <trkpt lat="48.21409" lon="-3.33329">
        <ele>165.00341796875</ele>
        <time>2012-04-18T09:02:28Z</time>
      </trkpt>
      <trkpt lat="48.21435" lon="-3.3336">
        <ele>165.48413085938</ele>
        <time>2012-04-18T09:02:39Z</time>
      </trkpt>
      <trkpt lat="48.2144" lon="-3.33367">
        <ele>165.48413085938</ele>
        <time>2012-04-18T09:02:51Z</time>
      </trkpt>
      <trkpt lat="48.21464" lon="-3.33403">
        <ele>167.40673828125</ele>
        <time>2012-04-18T09:03:03Z</time>
      </trkpt>
      <trkpt lat="48.21477" lon="-3.33418">
        <ele>166.92602539062</ele>
        <time>2012-04-18T09:03:15Z</time>
      </trkpt>
      <trkpt lat="48.21477" lon="-3.33418">
        <ele>166.92602539062</ele>
        <time>2012-04-18T09:07:22Z</time>
      </trkpt>
      <trkpt lat="48.2148" lon="-3.33428">
        <ele>165.96472167969</ele>
        <time>2012-04-18T09:07:27Z</time>
      </trkpt>
      <trkpt lat="48.21492" lon="-3.33442">
        <ele>166.4453125</ele>
        <time>2012-04-18T09:07:34Z</time>
      </trkpt>
      <trkpt lat="48.21511" lon="-3.33468">
        <ele>166.4453125</ele>
        <time>2012-04-18T09:07:45Z</time>
      </trkpt>
      <trkpt lat="48.21555" lon="-3.33515">
        <ele>166.4453125</ele>
        <time>2012-04-18T09:08:00Z</time>
      </trkpt>
      <trkpt lat="48.21598" lon="-3.33544">
        <ele>166.4453125</ele>
        <time>2012-04-18T09:08:12Z</time>
      </trkpt>
      <trkpt lat="48.2168" lon="-3.33596">
        <ele>167.40673828125</ele>
        <time>2012-04-18T09:08:34Z</time>
      </trkpt>
      <trkpt lat="48.21748" lon="-3.33637">
        <ele>168.84875488281</ele>
        <time>2012-04-18T09:08:53Z</time>
      </trkpt>
      <trkpt lat="48.21815" lon="-3.33683">
        <ele>166.92602539062</ele>
        <time>2012-04-18T09:09:12Z</time>
      </trkpt>
      <trkpt lat="48.21858" lon="-3.33752">
        <ele>163.5615234375</ele>
        <time>2012-04-18T09:09:29Z</time>
      </trkpt>
      <trkpt lat="48.21883" lon="-3.33829">
        <ele>163.5615234375</ele>
        <time>2012-04-18T09:09:45Z</time>
      </trkpt>
      <trkpt lat="48.21928" lon="-3.33957">
        <ele>162.60009765625</ele>
        <time>2012-04-18T09:10:11Z</time>
      </trkpt>
      <trkpt lat="48.21941" lon="-3.34">
        <ele>160.19689941406</ele>
        <time>2012-04-18T09:10:27Z</time>
      </trkpt>
      <trkpt lat="48.21965" lon="-3.34068">
        <ele>159.71618652344</ele>
        <time>2012-04-18T09:10:43Z</time>
      </trkpt>
      <trkpt lat="48.21992" lon="-3.3415">
        <ele>160.19689941406</ele>
        <time>2012-04-18T09:11:00Z</time>
      </trkpt>
      <trkpt lat="48.22019" lon="-3.34225">
        <ele>157.79357910156</ele>
        <time>2012-04-18T09:11:14Z</time>
      </trkpt>
      <trkpt lat="48.22059" lon="-3.34346">
        <ele>156.3515625</ele>
        <time>2012-04-18T09:11:36Z</time>
      </trkpt>
      <trkpt lat="48.22098" lon="-3.34392">
        <ele>158.27416992188</ele>
        <time>2012-04-18T09:11:50Z</time>
      </trkpt>
      <trkpt lat="48.2218" lon="-3.34442">
        <ele>159.71618652344</ele>
        <time>2012-04-18T09:12:13Z</time>
      </trkpt>
      <trkpt lat="48.2226" lon="-3.34494">
        <ele>160.67749023438</ele>
        <time>2012-04-18T09:12:36Z</time>
      </trkpt>
      <trkpt lat="48.22323" lon="-3.34532">
        <ele>161.63891601562</ele>
        <time>2012-04-18T09:12:55Z</time>
      </trkpt>
      <trkpt lat="48.2238" lon="-3.34575">
        <ele>163.5615234375</ele>
        <time>2012-04-18T09:13:12Z</time>
      </trkpt>
      <trkpt lat="48.2241" lon="-3.34658">
        <ele>162.11950683594</ele>
        <time>2012-04-18T09:13:30Z</time>
      </trkpt>
      <trkpt lat="48.22418" lon="-3.34682">
        <ele>164.04211425781</ele>
        <time>2012-04-18T09:13:37Z</time>
      </trkpt>
      <trkpt lat="48.22426" lon="-3.34725">
        <ele>164.52270507812</ele>
        <time>2012-04-18T09:13:50Z</time>
      </trkpt>
      <trkpt lat="48.22435" lon="-3.34781">
        <ele>163.08081054688</ele>
        <time>2012-04-18T09:14:04Z</time>
      </trkpt>
      <trkpt lat="48.22447" lon="-3.34859">
        <ele>165.48413085938</ele>
        <time>2012-04-18T09:14:19Z</time>
      </trkpt>
      <trkpt lat="48.2244" lon="-3.34926">
        <ele>166.92602539062</ele>
        <time>2012-04-18T09:14:32Z</time>
      </trkpt>
      <trkpt lat="48.22401" lon="-3.35023">
        <ele>167.40673828125</ele>
        <time>2012-04-18T09:14:52Z</time>
      </trkpt>
      <trkpt lat="48.22365" lon="-3.35153">
        <ele>166.4453125</ele>
        <time>2012-04-18T09:15:16Z</time>
      </trkpt>
      <trkpt lat="48.22339" lon="-3.35201">
        <ele>167.40673828125</ele>
        <time>2012-04-18T09:15:27Z</time>
      </trkpt>
      <trkpt lat="48.22282" lon="-3.35261">
        <ele>167.40673828125</ele>
        <time>2012-04-18T09:15:44Z</time>
      </trkpt>
      <trkpt lat="48.22241" lon="-3.35289">
        <ele>167.88732910156</ele>
        <time>2012-04-18T09:15:56Z</time>
      </trkpt>
      <trkpt lat="48.22221" lon="-3.35328">
        <ele>166.92602539062</ele>
        <time>2012-04-18T09:16:10Z</time>
      </trkpt>
      <trkpt lat="48.22221" lon="-3.35392">
        <ele>166.92602539062</ele>
        <time>2012-04-18T09:16:23Z</time>
      </trkpt>
      <trkpt lat="48.22223" lon="-3.35397">
        <ele>166.4453125</ele>
        <time>2012-04-18T09:16:26Z</time>
      </trkpt>
      <trkpt lat="48.22243" lon="-3.35463">
        <ele>165.00341796875</ele>
        <time>2012-04-18T09:16:39Z</time>
      </trkpt>
      <trkpt lat="48.22255" lon="-3.355">
        <ele>166.92602539062</ele>
        <time>2012-04-18T09:16:47Z</time>
      </trkpt>
      <trkpt lat="48.22281" lon="-3.35565">
        <ele>172.21325683594</ele>
        <time>2012-04-18T09:17:02Z</time>
      </trkpt>
      <trkpt lat="48.22311" lon="-3.3562">
        <ele>173.17468261719</ele>
        <time>2012-04-18T09:17:16Z</time>
      </trkpt>
      <trkpt lat="48.22336" lon="-3.35666">
        <ele>174.61657714844</ele>
        <time>2012-04-18T09:17:30Z</time>
      </trkpt>
      <trkpt lat="48.22372" lon="-3.35731">
        <ele>173.6552734375</ele>
        <time>2012-04-18T09:17:47Z</time>
      </trkpt>
      <trkpt lat="48.22413" lon="-3.35805">
        <ele>172.69396972656</ele>
        <time>2012-04-18T09:18:05Z</time>
      </trkpt>
      <trkpt lat="48.22447" lon="-3.35904">
        <ele>171.73266601562</ele>
        <time>2012-04-18T09:18:24Z</time>
      </trkpt>
      <trkpt lat="48.22473" lon="-3.36021">
        <ele>173.6552734375</ele>
        <time>2012-04-18T09:18:45Z</time>
      </trkpt>
      <trkpt lat="48.22508" lon="-3.36052">
        <ele>173.17468261719</ele>
        <time>2012-04-18T09:18:58Z</time>
      </trkpt>
      <trkpt lat="48.22553" lon="-3.36061">
        <ele>171.25207519531</ele>
        <time>2012-04-18T09:19:15Z</time>
      </trkpt>
      <trkpt lat="48.22586" lon="-3.36036">
        <ele>172.69396972656</ele>
        <time>2012-04-18T09:19:30Z</time>
      </trkpt>
      <trkpt lat="48.22629" lon="-3.36">
        <ele>175.09729003906</ele>
        <time>2012-04-18T09:19:48Z</time>
      </trkpt>
      <trkpt lat="48.22669" lon="-3.35952">
        <ele>175.09729003906</ele>
        <time>2012-04-18T09:20:06Z</time>
      </trkpt>
      <trkpt lat="48.22741" lon="-3.36006">
        <ele>173.6552734375</ele>
        <time>2012-04-18T09:20:22Z</time>
      </trkpt>
      <trkpt lat="48.22792" lon="-3.35977">
        <ele>171.25207519531</ele>
        <time>2012-04-18T09:20:39Z</time>
      </trkpt>
      <trkpt lat="48.22843" lon="-3.35994">
        <ele>173.17468261719</ele>
        <time>2012-04-18T09:20:54Z</time>
      </trkpt>
      <trkpt lat="48.22894" lon="-3.36058">
        <ele>172.21325683594</ele>
        <time>2012-04-18T09:21:12Z</time>
      </trkpt>
      <trkpt lat="48.22953" lon="-3.36143">
        <ele>171.73266601562</ele>
        <time>2012-04-18T09:21:35Z</time>
      </trkpt>
      <trkpt lat="48.22992" lon="-3.36199">
        <ele>171.73266601562</ele>
        <time>2012-04-18T09:21:51Z</time>
      </trkpt>
      <trkpt lat="48.23019" lon="-3.36239">
        <ele>171.73266601562</ele>
        <time>2012-04-18T09:22:05Z</time>
      </trkpt>
      <trkpt lat="48.23051" lon="-3.36287">
        <ele>172.69396972656</ele>
        <time>2012-04-18T09:22:19Z</time>
      </trkpt>
      <trkpt lat="48.23079" lon="-3.36329">
        <ele>171.25207519531</ele>
        <time>2012-04-18T09:22:31Z</time>
      </trkpt>
      <trkpt lat="48.23104" lon="-3.36363">
        <ele>172.69396972656</ele>
        <time>2012-04-18T09:22:43Z</time>
      </trkpt>
      <trkpt lat="48.23123" lon="-3.36394">
        <ele>173.6552734375</ele>
        <time>2012-04-18T09:22:53Z</time>
      </trkpt>
      <trkpt lat="48.23143" lon="-3.36442">
        <ele>177.98120117188</ele>
        <time>2012-04-18T09:23:04Z</time>
      </trkpt>
      <trkpt lat="48.23148" lon="-3.36466">
        <ele>179.90380859375</ele>
        <time>2012-04-18T09:23:10Z</time>
      </trkpt>
      <trkpt lat="48.23151" lon="-3.36478">
        <ele>180.38452148438</ele>
        <time>2012-04-18T09:23:14Z</time>
      </trkpt>
      <trkpt lat="48.2316" lon="-3.36539">
        <ele>187.11376953125</ele>
        <time>2012-04-18T09:23:30Z</time>
      </trkpt>
      <trkpt lat="48.23161" lon="-3.36542">
        <ele>187.59436035156</ele>
        <time>2012-04-18T09:23:31Z</time>
      </trkpt>
      <trkpt lat="48.23172" lon="-3.36616">
        <ele>188.55578613281</ele>
        <time>2012-04-18T09:23:49Z</time>
      </trkpt>
      <trkpt lat="48.23179" lon="-3.36684">
        <ele>187.11376953125</ele>
        <time>2012-04-18T09:24:06Z</time>
      </trkpt>
      <trkpt lat="48.23188" lon="-3.36738">
        <ele>180.38452148438</ele>
        <time>2012-04-18T09:24:18Z</time>
      </trkpt>
      <trkpt lat="48.23187" lon="-3.36815">
        <ele>179.42321777344</ele>
        <time>2012-04-18T09:24:35Z</time>
      </trkpt>
      <trkpt lat="48.23137" lon="-3.36885">
        <ele>177.98120117188</ele>
        <time>2012-04-18T09:24:56Z</time>
      </trkpt>
      <trkpt lat="48.23117" lon="-3.36925">
        <ele>180.38452148438</ele>
        <time>2012-04-18T09:25:10Z</time>
      </trkpt>
      <trkpt lat="48.2311" lon="-3.36952">
        <ele>181.82641601562</ele>
        <time>2012-04-18T09:25:20Z</time>
      </trkpt>
      <trkpt lat="48.231" lon="-3.3701">
        <ele>183.7490234375</ele>
        <time>2012-04-18T09:25:36Z</time>
      </trkpt>
      <trkpt lat="48.23117" lon="-3.37053">
        <ele>185.67175292969</ele>
        <time>2012-04-18T09:25:51Z</time>
      </trkpt>
      <trkpt lat="48.2313" lon="-3.37101">
        <ele>184.71057128906</ele>
        <time>2012-04-18T09:26:04Z</time>
      </trkpt>
      <trkpt lat="48.23148" lon="-3.37152">
        <ele>183.26843261719</ele>
        <time>2012-04-18T09:26:20Z</time>
      </trkpt>
      <trkpt lat="48.23177" lon="-3.37196">
        <ele>184.22985839844</ele>
        <time>2012-04-18T09:26:33Z</time>
      </trkpt>
      <trkpt lat="48.23217" lon="-3.3723">
        <ele>186.15246582031</ele>
        <time>2012-04-18T09:26:48Z</time>
      </trkpt>
      <trkpt lat="48.23261" lon="-3.37242">
        <ele>182.30712890625</ele>
        <time>2012-04-18T09:27:01Z</time>
      </trkpt>
      <trkpt lat="48.23264" lon="-3.37244">
        <ele>181.82641601562</ele>
        <time>2012-04-18T09:27:02Z</time>
      </trkpt>
      <trkpt lat="48.23308" lon="-3.37282">
        <ele>182.30712890625</ele>
        <time>2012-04-18T09:27:15Z</time>
      </trkpt>
      <trkpt lat="48.23314" lon="-3.37289">
        <ele>181.82641601562</ele>
        <time>2012-04-18T09:27:17Z</time>
      </trkpt>
      <trkpt lat="48.23346" lon="-3.37298">
        <ele>184.22985839844</ele>
        <time>2012-04-18T09:27:25Z</time>
      </trkpt>
      <trkpt lat="48.23401" lon="-3.37289">
        <ele>184.71057128906</ele>
        <time>2012-04-18T09:27:39Z</time>
      </trkpt>
      <trkpt lat="48.23445" lon="-3.3728">
        <ele>185.67175292969</ele>
        <time>2012-04-18T09:27:52Z</time>
      </trkpt>
      <trkpt lat="48.23484" lon="-3.3727">
        <ele>187.11376953125</ele>
        <time>2012-04-18T09:28:05Z</time>
      </trkpt>
      <trkpt lat="48.23508" lon="-3.37251">
        <ele>189.51696777344</ele>
        <time>2012-04-18T09:28:14Z</time>
      </trkpt>
      <trkpt lat="48.23537" lon="-3.37225">
        <ele>189.51696777344</ele>
        <time>2012-04-18T09:28:23Z</time>
      </trkpt>
      <trkpt lat="48.23599" lon="-3.37208">
        <ele>189.03637695312</ele>
        <time>2012-04-18T09:28:39Z</time>
      </trkpt>
      <trkpt lat="48.23694" lon="-3.37212">
        <ele>188.07507324219</ele>
        <time>2012-04-18T09:29:04Z</time>
      </trkpt>
      <trkpt lat="48.23761" lon="-3.37226">
        <ele>189.03637695312</ele>
        <time>2012-04-18T09:29:23Z</time>
      </trkpt>
      <trkpt lat="48.2379" lon="-3.37299">
        <ele>186.15246582031</ele>
        <time>2012-04-18T09:29:40Z</time>
      </trkpt>
      <trkpt lat="48.23803" lon="-3.37378">
        <ele>186.63317871094</ele>
        <time>2012-04-18T09:29:57Z</time>
      </trkpt>
      <trkpt lat="48.23812" lon="-3.37444">
        <ele>185.67175292969</ele>
        <time>2012-04-18T09:30:13Z</time>
      </trkpt>
      <trkpt lat="48.23816" lon="-3.37475">
        <ele>187.11376953125</ele>
        <time>2012-04-18T09:30:24Z</time>
      </trkpt>
      <trkpt lat="48.2382" lon="-3.37483">
        <ele>188.07507324219</ele>
        <time>2012-04-18T09:30:29Z</time>
      </trkpt>
      <trkpt lat="48.23822" lon="-3.37486">
        <ele>188.07507324219</ele>
        <time>2012-04-18T09:30:31Z</time>
      </trkpt>
      <trkpt lat="48.23824" lon="-3.37498">
        <ele>187.59436035156</ele>
        <time>2012-04-18T09:30:36Z</time>
      </trkpt>
      <trkpt lat="48.23822" lon="-3.37513">
        <ele>186.15246582031</ele>
        <time>2012-04-18T09:30:50Z</time>
      </trkpt>
      <trkpt lat="48.23794" lon="-3.37539">
        <ele>185.19116210938</ele>
        <time>2012-04-18T09:31:00Z</time>
      </trkpt>
      <trkpt lat="48.23833" lon="-3.37624">
        <ele>185.67175292969</ele>
        <time>2012-04-18T09:31:08Z</time>
      </trkpt>
      <trkpt lat="48.23854" lon="-3.37694">
        <ele>185.19116210938</ele>
        <time>2012-04-18T09:31:20Z</time>
      </trkpt>
      <trkpt lat="48.23888" lon="-3.37788">
        <ele>183.26843261719</ele>
        <time>2012-04-18T09:31:38Z</time>
      </trkpt>
      <trkpt lat="48.23937" lon="-3.37846">
        <ele>185.67175292969</ele>
        <time>2012-04-18T09:31:56Z</time>
      </trkpt>
      <trkpt lat="48.23998" lon="-3.37915">
        <ele>186.63317871094</ele>
        <time>2012-04-18T09:32:17Z</time>
      </trkpt>
      <trkpt lat="48.24035" lon="-3.37969">
        <ele>185.19116210938</ele>
        <time>2012-04-18T09:32:34Z</time>
      </trkpt>
      <trkpt lat="48.24044" lon="-3.38022">
        <ele>184.71057128906</ele>
        <time>2012-04-18T09:32:45Z</time>
      </trkpt>
      <trkpt lat="48.24037" lon="-3.38098">
        <ele>185.19116210938</ele>
        <time>2012-04-18T09:32:59Z</time>
      </trkpt>
      <trkpt lat="48.24037" lon="-3.38154">
        <ele>185.67175292969</ele>
        <time>2012-04-18T09:33:11Z</time>
      </trkpt>
      <trkpt lat="48.24035" lon="-3.38165">
        <ele>186.15246582031</ele>
        <time>2012-04-18T09:33:13Z</time>
      </trkpt>
      <trkpt lat="48.24029" lon="-3.38209">
        <ele>187.59436035156</ele>
        <time>2012-04-18T09:33:22Z</time>
      </trkpt>
      <trkpt lat="48.24024" lon="-3.38244">
        <ele>189.99768066406</ele>
        <time>2012-04-18T09:33:29Z</time>
      </trkpt>
      <trkpt lat="48.24017" lon="-3.38301">
        <ele>195.765625</ele>
        <time>2012-04-18T09:33:41Z</time>
      </trkpt>
      <trkpt lat="48.24018" lon="-3.38341">
        <ele>197.20751953125</ele>
        <time>2012-04-18T09:33:50Z</time>
      </trkpt>
      <trkpt lat="48.24016" lon="-3.38401">
        <ele>191.43957519531</ele>
        <time>2012-04-18T09:34:02Z</time>
      </trkpt>
      <trkpt lat="48.24014" lon="-3.38421">
        <ele>189.99768066406</ele>
        <time>2012-04-18T09:34:06Z</time>
      </trkpt>
      <trkpt lat="48.24009" lon="-3.38475">
        <ele>191.43957519531</ele>
        <time>2012-04-18T09:34:18Z</time>
      </trkpt>
      <trkpt lat="48.24008" lon="-3.385">
        <ele>191.43957519531</ele>
        <time>2012-04-18T09:34:24Z</time>
      </trkpt>
      <trkpt lat="48.23999" lon="-3.38573">
        <ele>197.68823242188</ele>
        <time>2012-04-18T09:34:40Z</time>
      </trkpt>
      <trkpt lat="48.23994" lon="-3.38639">
        <ele>194.80432128906</ele>
        <time>2012-04-18T09:34:54Z</time>
      </trkpt>
      <trkpt lat="48.23987" lon="-3.3871">
        <ele>197.20751953125</ele>
        <time>2012-04-18T09:35:08Z</time>
      </trkpt>
      <trkpt lat="48.23978" lon="-3.38817">
        <ele>195.765625</ele>
        <time>2012-04-18T09:35:28Z</time>
      </trkpt>
      <trkpt lat="48.23972" lon="-3.38884">
        <ele>191.43957519531</ele>
        <time>2012-04-18T09:35:42Z</time>
      </trkpt>
      <trkpt lat="48.23964" lon="-3.38939">
        <ele>189.51696777344</ele>
        <time>2012-04-18T09:35:55Z</time>
      </trkpt>
      <trkpt lat="48.23934" lon="-3.39025">
        <ele>189.99768066406</ele>
        <time>2012-04-18T09:36:15Z</time>
      </trkpt>
      <trkpt lat="48.23902" lon="-3.3909">
        <ele>189.03637695312</ele>
        <time>2012-04-18T09:36:32Z</time>
      </trkpt>
      <trkpt lat="48.23864" lon="-3.39174">
        <ele>190.47839355469</ele>
        <time>2012-04-18T09:36:53Z</time>
      </trkpt>
      <trkpt lat="48.23842" lon="-3.39218">
        <ele>189.03637695312</ele>
        <time>2012-04-18T09:37:05Z</time>
      </trkpt>
      <trkpt lat="48.23823" lon="-3.3926">
        <ele>188.55578613281</ele>
        <time>2012-04-18T09:37:14Z</time>
      </trkpt>
      <trkpt lat="48.23794" lon="-3.39321">
        <ele>190.47839355469</ele>
        <time>2012-04-18T09:37:28Z</time>
      </trkpt>
      <trkpt lat="48.23754" lon="-3.39408">
        <ele>191.43957519531</ele>
        <time>2012-04-18T09:37:48Z</time>
      </trkpt>
      <trkpt lat="48.23734" lon="-3.39446">
        <ele>189.03637695312</ele>
        <time>2012-04-18T09:37:59Z</time>
      </trkpt>
      <trkpt lat="48.23706" lon="-3.39512">
        <ele>190.47839355469</ele>
        <time>2012-04-18T09:38:14Z</time>
      </trkpt>
      <trkpt lat="48.23686" lon="-3.39553">
        <ele>187.11376953125</ele>
        <time>2012-04-18T09:38:25Z</time>
      </trkpt>
      <trkpt lat="48.23656" lon="-3.39618">
        <ele>193.84301757812</ele>
        <time>2012-04-18T09:38:43Z</time>
      </trkpt>
      <trkpt lat="48.23625" lon="-3.39684">
        <ele>192.40112304688</ele>
        <time>2012-04-18T09:39:00Z</time>
      </trkpt>
      <trkpt lat="48.23607" lon="-3.39727">
        <ele>190.47839355469</ele>
        <time>2012-04-18T09:39:10Z</time>
      </trkpt>
      <trkpt lat="48.23582" lon="-3.39783">
        <ele>189.99768066406</ele>
        <time>2012-04-18T09:39:22Z</time>
      </trkpt>
      <trkpt lat="48.23572" lon="-3.39802">
        <ele>189.99768066406</ele>
        <time>2012-04-18T09:39:27Z</time>
      </trkpt>
      <trkpt lat="48.23542" lon="-3.39867">
        <ele>190.47839355469</ele>
        <time>2012-04-18T09:39:42Z</time>
      </trkpt>
      <trkpt lat="48.23512" lon="-3.3993">
        <ele>191.43957519531</ele>
        <time>2012-04-18T09:39:57Z</time>
      </trkpt>
      <trkpt lat="48.23501" lon="-3.39967">
        <ele>192.40112304688</ele>
        <time>2012-04-18T09:40:09Z</time>
      </trkpt>
      <trkpt lat="48.23492" lon="-3.39984">
        <ele>191.43957519531</ele>
        <time>2012-04-18T09:40:20Z</time>
      </trkpt>
      <trkpt lat="48.23487" lon="-3.39979">
        <ele>189.99768066406</ele>
        <time>2012-04-18T09:40:43Z</time>
      </trkpt>
      <trkpt lat="48.23487" lon="-3.39978">
        <ele>189.99768066406</ele>
        <time>2012-04-18T09:41:29Z</time>
      </trkpt>
      <trkpt lat="48.23486" lon="-3.3998">
        <ele>189.51696777344</ele>
        <time>2012-04-18T09:44:07Z</time>
      </trkpt>
      <trkpt lat="48.2349" lon="-3.39985">
        <ele>187.11376953125</ele>
        <time>2012-04-18T09:49:31Z</time>
      </trkpt>
      <trkpt lat="48.23491" lon="-3.39986">
        <ele>187.59436035156</ele>
        <time>2012-04-18T09:49:32Z</time>
      </trkpt>
      <trkpt lat="48.23494" lon="-3.39992">
        <ele>188.55578613281</ele>
        <time>2012-04-18T09:49:49Z</time>
      </trkpt>
      <trkpt lat="48.23493" lon="-3.39994">
        <ele>187.59436035156</ele>
        <time>2012-04-18T09:50:29Z</time>
      </trkpt>
      <trkpt lat="48.23494" lon="-3.39995">
        <ele>187.11376953125</ele>
        <time>2012-04-18T09:50:56Z</time>
      </trkpt>
      <trkpt lat="48.23475" lon="-3.40024">
        <ele>186.63317871094</ele>
        <time>2012-04-18T09:51:07Z</time>
      </trkpt>
      <trkpt lat="48.23449" lon="-3.40077">
        <ele>183.26843261719</ele>
        <time>2012-04-18T09:51:19Z</time>
      </trkpt>
      <trkpt lat="48.23415" lon="-3.4015">
        <ele>182.78784179688</ele>
        <time>2012-04-18T09:51:36Z</time>
      </trkpt>
      <trkpt lat="48.23383" lon="-3.40211">
        <ele>193.3623046875</ele>
        <time>2012-04-18T09:51:50Z</time>
      </trkpt>
      <trkpt lat="48.23341" lon="-3.40275">
        <ele>194.80432128906</ele>
        <time>2012-04-18T09:52:07Z</time>
      </trkpt>
      <trkpt lat="48.23312" lon="-3.40324">
        <ele>190.47839355469</ele>
        <time>2012-04-18T09:52:23Z</time>
      </trkpt>
      <trkpt lat="48.23288" lon="-3.40362">
        <ele>189.03637695312</ele>
        <time>2012-04-18T09:52:36Z</time>
      </trkpt>
      <trkpt lat="48.23256" lon="-3.40413">
        <ele>184.71057128906</ele>
        <time>2012-04-18T09:52:51Z</time>
      </trkpt>
      <trkpt lat="48.23222" lon="-3.40467">
        <ele>180.38452148438</ele>
        <time>2012-04-18T09:53:07Z</time>
      </trkpt>
      <trkpt lat="48.23183" lon="-3.40527">
        <ele>186.15246582031</ele>
        <time>2012-04-18T09:53:25Z</time>
      </trkpt>
      <trkpt lat="48.23149" lon="-3.40583">
        <ele>185.67175292969</ele>
        <time>2012-04-18T09:53:42Z</time>
      </trkpt>
      <trkpt lat="48.23113" lon="-3.40639">
        <ele>185.67175292969</ele>
        <time>2012-04-18T09:53:59Z</time>
      </trkpt>
      <trkpt lat="48.23092" lon="-3.40673">
        <ele>187.59436035156</ele>
        <time>2012-04-18T09:54:09Z</time>
      </trkpt>
      <trkpt lat="48.23068" lon="-3.40708">
        <ele>190.958984375</ele>
        <time>2012-04-18T09:54:21Z</time>
      </trkpt>
      <trkpt lat="48.23054" lon="-3.40732">
        <ele>192.40112304688</ele>
        <time>2012-04-18T09:54:28Z</time>
      </trkpt>
      <trkpt lat="48.23048" lon="-3.40805">
        <ele>196.72692871094</ele>
        <time>2012-04-18T09:54:44Z</time>
      </trkpt>
      <trkpt lat="48.23062" lon="-3.40843">
        <ele>188.55578613281</ele>
        <time>2012-04-18T09:54:54Z</time>
      </trkpt>
      <trkpt lat="48.23067" lon="-3.4085">
        <ele>187.59436035156</ele>
        <time>2012-04-18T09:54:58Z</time>
      </trkpt>
      <trkpt lat="48.23071" lon="-3.40861">
        <ele>186.63317871094</ele>
        <time>2012-04-18T09:55:02Z</time>
      </trkpt>
      <trkpt lat="48.23076" lon="-3.40866">
        <ele>187.11376953125</ele>
        <time>2012-04-18T09:55:12Z</time>
      </trkpt>
      <trkpt lat="48.23077" lon="-3.40879">
        <ele>188.55578613281</ele>
        <time>2012-04-18T09:55:18Z</time>
      </trkpt>
      <trkpt lat="48.23085" lon="-3.40887">
        <ele>186.63317871094</ele>
        <time>2012-04-18T09:55:22Z</time>
      </trkpt>
      <trkpt lat="48.23094" lon="-3.40884">
        <ele>185.67175292969</ele>
        <time>2012-04-18T09:55:26Z</time>
      </trkpt>
      <trkpt lat="48.23116" lon="-3.40868">
        <ele>185.67175292969</ele>
        <time>2012-04-18T09:55:42Z</time>
      </trkpt>
      <trkpt lat="48.23109" lon="-3.40886">
        <ele>186.15246582031</ele>
        <time>2012-04-18T09:56:03Z</time>
      </trkpt>
      <trkpt lat="48.23087" lon="-3.40909">
        <ele>188.07507324219</ele>
        <time>2012-04-18T09:56:30Z</time>
      </trkpt>
      <trkpt lat="48.23079" lon="-3.40924">
        <ele>188.07507324219</ele>
        <time>2012-04-18T09:57:01Z</time>
      </trkpt>
      <trkpt lat="48.23077" lon="-3.40928">
        <ele>185.19116210938</ele>
        <time>2012-04-18T09:57:15Z</time>
      </trkpt>
    </trkseg>
  </trk>
</gpx>